Time;durP1;ratioP1;P1;durP2;ratioP2;P2;SDS_P1;SDS_P2;PMS_P1;PMS_P2;Temp;Humidity;BMP_temperature;BMP_pressure;BME280_temperature;BME280_humidity;BME280_pressure;Samples;Min_cycle;Max_cycle;Signal;HPM_P1;HPM_P2
2023/09/04 00:00:44;;;;;;;9.88;7.03;;;14.80;99.90;;;;;;5062810;28;20229;-60
2023/09/04 00:03:10;;;;;;;8.27;7.30;;;14.80;99.90;;;;;;5063853;28;20033;-60
2023/09/04 00:05:35;;;;;;;8.88;7.60;;;14.80;99.90;;;;;;5064011;28;20040;-57
2023/09/04 00:08:02;;;;;;;7.65;6.85;;;14.70;99.90;;;;;;5059383;28;20166;-61
2023/09/04 00:10:27;;;;;;;9.32;7.53;;;14.70;99.90;;;;;;5068098;28;20036;-59
2023/09/04 00:12:53;;;;;;;10.80;7.75;;;14.70;99.90;;;;;;5061007;28;20066;-60
2023/09/04 00:15:19;;;;;;;8.73;7.47;;;14.70;99.90;;;;;;5071849;28;20036;-60
2023/09/04 00:17:49;;;;;;;8.65;7.30;;;14.60;99.90;;;;;;5073025;28;20064;-59
2023/09/04 00:20:15;;;;;;;7.97;7.18;;;14.60;99.90;;;;;;5059558;28;20059;-59
2023/09/04 00:22:41;;;;;;;7.78;6.97;;;14.50;99.90;;;;;;5059108;28;20105;-59
2023/09/04 00:25:07;;;;;;;10.55;7.10;;;14.50;99.90;;;;;;5056527;28;20072;-59
2023/09/04 00:27:33;;;;;;;8.05;7.25;;;14.50;99.90;;;;;;5057083;28;20052;-60
2023/09/04 00:29:58;;;;;;;7.68;6.93;;;14.50;99.90;;;;;;5054500;28;20049;-60
2023/09/04 00:32:24;;;;;;;7.97;7.18;;;14.50;99.90;;;;;;5056553;28;20029;-60
2023/09/04 00:34:50;;;;;;;9.20;7.05;;;14.40;99.90;;;;;;5062071;28;20096;-60
2023/09/04 00:37:16;;;;;;;9.90;6.82;;;14.50;99.90;;;;;;5048225;28;20493;-59
2023/09/04 00:39:41;;;;;;;8.35;7.18;;;14.40;99.90;;;;;;5058775;28;20476;-59
2023/09/04 00:42:09;;;;;;;7.60;6.43;;;14.40;99.90;;;;;;5055663;28;20033;-60
2023/09/04 00:44:34;;;;;;;8.60;7.18;;;14.40;99.90;;;;;;5056559;28;20690;-59
2023/09/04 00:47:00;;;;;;;8.27;6.30;;;14.40;99.90;;;;;;5066854;28;20056;-60
2023/09/04 00:49:28;;;;;;;7.65;6.75;;;14.30;99.90;;;;;;5056947;28;20045;-61
2023/09/04 00:51:55;;;;;;;9.35;6.40;;;14.30;99.90;;;;;;5056763;28;20049;-61
2023/09/04 00:54:22;;;;;;;7.43;6.50;;;14.30;99.90;;;;;;5055579;28;20093;-58
2023/09/04 00:56:51;;;;;;;9.80;6.60;;;14.30;99.90;;;;;;5057495;28;20049;-60
2023/09/04 00:59:18;;;;;;;7.85;6.78;;;14.20;99.90;;;;;;5040448;28;20040;-59
2023/09/04 01:01:43;;;;;;;7.35;6.65;;;14.20;99.90;;;;;;5058559;28;20041;-59
2023/09/04 01:04:09;;;;;;;8.27;6.40;;;14.10;99.90;;;;;;5055437;28;20450;-60
2023/09/04 01:06:35;;;;;;;6.93;6.22;;;14.10;99.90;;;;;;5064725;28;20541;-60
2023/09/04 01:09:01;;;;;;;8.55;6.47;;;14.10;99.90;;;;;;5053878;28;20033;-59
2023/09/04 01:11:42;;;;;;;9.05;7.25;;;14.10;99.90;;;;;;5063636;28;20048;-60
2023/09/04 01:14:16;;;;;;;8.23;7.00;;;14.10;99.90;;;;;;5067918;28;20072;-60
2023/09/04 01:16:42;;;;;;;9.50;7.13;;;14.10;99.90;;;;;;5060391;28;20044;-61
2023/09/04 01:19:10;;;;;;;7.70;6.90;;;14.10;99.90;;;;;;5071553;28;20052;-60
2023/09/04 01:21:37;;;;;;;9.07;7.00;;;14.10;99.90;;;;;;5067312;28;20037;-59
2023/09/04 01:24:03;;;;;;;8.32;7.45;;;14.00;99.90;;;;;;5067447;28;20113;-60
2023/09/04 01:26:32;;;;;;;7.95;7.13;;;14.00;99.90;;;;;;5069680;28;20103;-61
2023/09/04 01:29:11;;;;;;;7.93;7.13;;;14.00;99.90;;;;;;5062648;28;20052;-60
2023/09/04 01:31:50;;;;;;;9.90;7.13;;;13.90;99.90;;;;;;5066038;28;20052;-60
2023/09/04 01:34:23;;;;;;;10.27;8.02;;;13.90;99.90;;;;;;5070517;28;20040;-60
2023/09/04 01:36:52;;;;;;;10.30;7.65;;;13.90;99.90;;;;;;5063414;28;20063;-60
2023/09/04 01:39:19;;;;;;;9.75;7.60;;;13.90;99.90;;;;;;5061468;28;20045;-60
2023/09/04 01:41:45;;;;;;;11.55;8.27;;;13.90;99.90;;;;;;5073906;28;20049;-61
2023/09/04 01:44:11;;;;;;;8.63;7.72;;;13.90;99.90;;;;;;5070312;28;20044;-60
2023/09/04 01:46:37;;;;;;;9.18;7.70;;;13.90;99.90;;;;;;5062201;28;20056;-61
2023/09/04 01:49:03;;;;;;;11.13;8.15;;;13.80;99.90;;;;;;5070808;28;20043;-60
2023/09/04 01:51:28;;;;;;;9.35;8.45;;;13.80;99.90;;;;;;5059885;28;20041;-60
2023/09/04 01:53:54;;;;;;;9.55;8.10;;;13.80;99.90;;;;;;5061116;28;20045;-59
2023/09/04 01:56:20;;;;;;;11.07;9.40;;;13.80;99.90;;;;;;5074562;28;20370;-59
2023/09/04 01:58:45;;;;;;;9.63;8.48;;;13.80;99.90;;;;;;5075087;28;20435;-59
2023/09/04 02:01:11;;;;;;;12.07;9.05;;;13.80;99.90;;;;;;5061077;28;20063;-60
2023/09/04 02:03:38;;;;;;;11.63;8.85;;;13.70;99.90;;;;;;5071591;28;20041;-59
2023/09/04 02:06:04;;;;;;;10.48;8.65;;;13.70;99.90;;;;;;5062751;28;20037;-59
2023/09/04 02:08:30;;;;;;;9.82;8.40;;;13.70;99.90;;;;;;5061806;28;20083;-60
2023/09/04 02:10:58;;;;;;;9.80;8.38;;;13.70;99.90;;;;;;5064273;28;20044;-60
2023/09/04 02:13:23;;;;;;;9.55;8.55;;;13.70;99.90;;;;;;5076929;28;20055;-61
2023/09/04 02:15:50;;;;;;;12.70;9.30;;;13.60;99.90;;;;;;5067658;28;20781;-60
2023/09/04 02:18:16;;;;;;;9.43;8.10;;;13.60;99.90;;;;;;5070412;28;20060;-60
2023/09/04 02:20:41;;;;;;;10.07;8.98;;;13.60;99.90;;;;;;5076772;28;20044;-61
2023/09/04 02:23:07;;;;;;;10.18;9.02;;;13.60;99.90;;;;;;5073172;28;20041;-59
2023/09/04 02:25:33;;;;;;;10.45;8.15;;;13.60;99.90;;;;;;5077071;28;20059;-61
2023/09/04 02:27:58;;;;;;;10.52;9.40;;;13.60;99.90;;;;;;5076369;28;20075;-60
2023/09/04 02:30:24;;;;;;;9.88;8.85;;;13.50;99.90;;;;;;5064766;28;20068;-60
2023/09/04 02:32:50;;;;;;;11.98;9.40;;;13.50;99.90;;;;;;5066585;28;20045;-61
2023/09/04 02:35:16;;;;;;;10.40;9.15;;;13.50;99.90;;;;;;5075072;28;20062;-59
2023/09/04 02:37:44;;;;;;;9.95;8.90;;;13.50;99.90;;;;;;5072872;28;20056;-61
2023/09/04 02:40:10;;;;;;;10.68;9.57;;;13.40;99.90;;;;;;5061101;28;20041;-60
2023/09/04 02:42:36;;;;;;;15.30;10.63;;;13.40;99.90;;;;;;5063258;28;20134;-60
2023/09/04 02:45:02;;;;;;;14.38;9.23;;;13.40;99.90;;;;;;5074127;28;20048;-59
2023/09/04 02:47:27;;;;;;;13.35;9.70;;;13.40;99.90;;;;;;5069318;28;20055;-59
2023/09/04 02:49:54;;;;;;;10.43;9.18;;;13.40;99.90;;;;;;5067053;28;20532;-59
2023/09/04 02:52:19;;;;;;;9.95;8.93;;;13.40;99.90;;;;;;5079197;28;20055;-60
2023/09/04 02:54:46;;;;;;;9.95;8.95;;;13.30;99.90;;;;;;5077062;28;20616;-60
2023/09/04 02:57:11;;;;;;;12.05;9.20;;;13.30;99.90;;;;;;5071155;28;20483;-60
2023/09/04 02:59:37;;;;;;;10.25;9.15;;;13.30;99.90;;;;;;5072864;28;20033;-59
2023/09/04 03:02:03;;;;;;;10.35;9.13;;;13.30;99.90;;;;;;5075862;28;20096;-60
2023/09/04 03:04:29;;;;;;;11.35;9.60;;;13.30;99.90;;;;;;5072532;28;20048;-58
2023/09/04 03:06:55;;;;;;;10.88;9.77;;;13.20;99.90;;;;;;5062656;28;20040;-60
2023/09/04 03:09:21;;;;;;;10.65;9.52;;;13.20;99.90;;;;;;5069851;28;20029;-60
2023/09/04 03:11:46;;;;;;;11.23;9.55;;;13.20;99.90;;;;;;5068863;28;20049;-60
2023/09/04 03:14:13;;;;;;;9.57;8.68;;;13.20;99.90;;;;;;5063337;28;20045;-61
2023/09/04 03:16:39;;;;;;;10.43;8.90;;;13.10;99.90;;;;;;5068369;28;20090;-60
2023/09/04 03:19:05;;;;;;;10.25;8.85;;;13.10;99.90;;;;;;5063326;28;20505;-60
2023/09/04 03:21:32;;;;;;;12.57;9.07;;;13.10;99.90;;;;;;5058202;28;20032;-60
2023/09/04 03:23:57;;;;;;;9.40;8.50;;;13.10;99.90;;;;;;5061882;28;20045;-60
2023/09/04 03:26:23;;;;;;;10.30;8.65;;;13.10;99.90;;;;;;5066888;28;20053;-60
2023/09/04 03:28:49;;;;;;;10.90;9.50;;;13.10;99.90;;;;;;5063156;28;20120;-61
2023/09/04 03:31:15;;;;;;;12.20;9.88;;;13.10;99.90;;;;;;5065460;28;20044;-61
2023/09/04 03:33:43;;;;;;;10.55;9.13;;;13.00;99.90;;;;;;5066815;28;20041;-61
2023/09/04 03:36:12;;;;;;;11.82;9.63;;;13.00;99.90;;;;;;5064820;28;20071;-61
2023/09/04 03:38:39;;;;;;;10.60;9.50;;;12.90;99.90;;;;;;5061958;28;20032;-60
2023/09/04 03:41:05;;;;;;;12.10;9.68;;;12.90;99.90;;;;;;5066828;28;20056;-60
2023/09/04 03:43:31;;;;;;;12.50;9.23;;;12.90;99.90;;;;;;5073475;28;20037;-60
2023/09/04 03:45:57;;;;;;;10.45;9.38;;;12.90;99.90;;;;;;5041891;28;20084;-60
2023/09/04 03:48:22;;;;;;;10.77;9.23;;;12.90;99.90;;;;;;5059601;28;20428;-60
2023/09/04 03:50:48;;;;;;;14.50;9.00;;;12.80;99.90;;;;;;5067543;28;20123;-61
2023/09/04 03:53:14;;;;;;;9.88;8.75;;;12.80;99.90;;;;;;5070176;28;20104;-61
2023/09/04 03:55:39;;;;;;;10.32;8.55;;;12.80;99.90;;;;;;5069780;28;20304;-60
2023/09/04 03:58:05;;;;;;;9.82;8.57;;;12.80;99.90;;;;;;5064811;28;20076;-60
2023/09/04 04:00:31;;;;;;;10.40;8.30;;;12.70;99.90;;;;;;5061275;28;20045;-61
2023/09/04 04:02:57;;;;;;;10.20;8.48;;;12.70;99.90;;;;;;5060415;28;20040;-60
2023/09/04 04:05:23;;;;;;;9.38;8.40;;;12.70;99.90;;;;;;5070558;28;20094;-60
2023/09/04 04:07:49;;;;;;;10.43;9.10;;;12.70;99.90;;;;;;5065809;28;20029;-60
2023/09/04 04:10:15;;;;;;;9.23;8.05;;;12.70;99.90;;;;;;5060324;28;20078;-61
2023/09/04 04:12:41;;;;;;;10.90;8.70;;;12.70;99.90;;;;;;5069429;28;20052;-60
2023/09/04 04:15:08;;;;;;;11.82;8.43;;;12.70;99.90;;;;;;5064998;28;20029;-60
2023/09/04 04:17:34;;;;;;;9.05;8.10;;;12.70;99.90;;;;;;5068041;28;20475;-57
2023/09/04 04:20:00;;;;;;;8.80;7.90;;;12.60;99.90;;;;;;5058316;28;20045;-59
2023/09/04 04:22:26;;;;;;;9.35;8.30;;;12.60;99.90;;;;;;5064690;28;20032;-59
2023/09/04 04:24:52;;;;;;;9.18;8.18;;;12.60;99.90;;;;;;5067737;28;20095;-60
2023/09/04 04:27:18;;;;;;;8.73;7.82;;;12.60;99.90;;;;;;5067060;28;20053;-63
2023/09/04 04:29:44;;;;;;;10.40;7.15;;;12.60;99.90;;;;;;5057963;28;20083;-60
2023/09/04 04:32:10;;;;;;;10.68;7.43;;;12.50;99.90;;;;;;5068626;28;20538;-60
2023/09/04 04:34:36;;;;;;;8.32;7.45;;;12.50;99.90;;;;;;5064485;28;20072;-59
2023/09/04 04:37:01;;;;;;;7.88;7.03;;;12.50;99.90;;;;;;5062662;28;20073;-59
2023/09/04 04:39:27;;;;;;;11.18;7.53;;;12.50;99.90;;;;;;5059033;28;20087;-59
2023/09/04 04:41:53;;;;;;;11.00;7.35;;;12.50;99.90;;;;;;5060794;28;20041;-60
2023/09/04 04:44:19;;;;;;;8.20;6.95;;;12.40;99.90;;;;;;5069714;28;20048;-61
2023/09/04 04:46:48;;;;;;;7.15;6.45;;;12.40;99.90;;;;;;5071570;28;20609;-60
2023/09/04 04:49:19;;;;;;;8.60;6.80;;;12.40;99.90;;;;;;5055578;28;20176;-60
2023/09/04 04:51:44;;;;;;;9.73;6.90;;;12.30;99.90;;;;;;5065054;28;20041;-60
2023/09/04 04:54:10;;;;;;;7.25;6.45;;;12.30;99.90;;;;;;5066535;28;20037;-61
2023/09/04 04:56:36;;;;;;;8.07;5.68;;;12.30;99.90;;;;;;5067705;28;20041;-60
2023/09/04 04:59:01;;;;;;;7.72;6.75;;;12.20;99.90;;;;;;5067969;28;20041;-60
2023/09/04 05:01:27;;;;;;;8.02;7.22;;;12.20;99.90;;;;;;5064561;28;20048;-60
2023/09/04 05:03:53;;;;;;;8.10;6.82;;;12.10;99.90;;;;;;5070720;28;20072;-58
2023/09/04 05:06:18;;;;;;;8.52;7.63;;;12.10;99.90;;;;;;5053149;28;20049;-62
2023/09/04 05:08:44;;;;;;;9.50;7.75;;;12.10;99.90;;;;;;5069557;28;20469;-61
2023/09/04 05:11:09;;;;;;;9.65;7.40;;;12.10;99.90;;;;;;5068828;28;20076;-59
2023/09/04 05:13:35;;;;;;;10.05;7.20;;;12.10;99.90;;;;;;5071012;28;20047;-62
2023/09/04 05:16:04;;;;;;;8.20;7.40;;;12.10;99.90;;;;;;5067140;28;20045;-59
2023/09/04 05:18:34;;;;;;;8.35;7.45;;;12.10;99.90;;;;;;5062260;28;20044;-59
2023/09/04 05:20:59;;;;;;;8.90;7.82;;;12.10;99.90;;;;;;5068959;28;20040;-59
2023/09/04 05:23:25;;;;;;;10.85;8.52;;;12.10;99.90;;;;;;5072329;28;20044;-57
2023/09/04 05:25:52;;;;;;;9.40;8.40;;;12.10;99.90;;;;;;5067420;28;20048;-59
2023/09/04 05:28:18;;;;;;;11.20;9.32;;;12.10;99.90;;;;;;5065190;28;20096;-59
2023/09/04 05:30:44;;;;;;;10.35;9.13;;;12.20;99.90;;;;;;5071143;28;20040;-60
2023/09/04 05:33:10;;;;;;;12.00;9.38;;;12.20;99.90;;;;;;5071497;28;20043;-60
2023/09/04 05:35:35;;;;;;;13.23;10.02;;;12.20;99.90;;;;;;5064531;28;20047;-60
2023/09/04 05:38:01;;;;;;;11.75;10.15;;;13.00;99.90;;;;;;5059890;28;21495;-62
2023/09/04 05:40:27;;;;;;;11.88;10.48;;;12.30;99.90;;;;;;5065366;28;20041;-60
2023/09/04 05:42:53;;;;;;;13.98;10.88;;;12.40;99.90;;;;;;5064358;28;20037;-59
2023/09/04 05:45:19;;;;;;;12.35;10.93;;;12.40;99.90;;;;;;5061141;28;20171;-59
2023/09/04 05:47:49;;;;;;;13.18;11.77;;;12.40;99.90;;;;;;5073128;28;20040;-60
2023/09/04 05:50:15;;;;;;;16.63;12.02;;;12.50;99.90;;;;;;5063152;28;20064;-59
2023/09/04 05:52:41;;;;;;;16.70;13.02;;;12.50;99.90;;;;;;5068404;28;20207;-60
2023/09/04 05:55:07;;;;;;;15.55;12.57;;;12.60;99.90;;;;;;5065152;28;20128;-60
2023/09/04 05:57:34;;;;;;;16.30;13.90;;;12.60;99.90;;;;;;5078882;28;20037;-60
2023/09/04 06:00:00;;;;;;;17.88;13.18;;;12.70;99.90;;;;;;5060489;28;20089;-58
2023/09/04 06:02:27;;;;;;;16.48;13.95;;;12.70;99.90;;;;;;5064629;28;20128;-59
2023/09/04 06:04:53;;;;;;;15.13;13.52;;;12.80;99.90;;;;;;5067007;28;20124;-60
2023/09/04 06:07:19;;;;;;;16.00;14.25;;;12.80;99.90;;;;;;5068201;28;20052;-59
2023/09/04 06:09:45;;;;;;;16.42;14.18;;;12.90;99.90;;;;;;5075044;28;20036;-60
2023/09/04 06:12:11;;;;;;;16.95;14.85;;;12.90;99.90;;;;;;5067138;28;20048;-57
2023/09/04 06:14:40;;;;;;;38.55;15.57;;;13.00;99.90;;;;;;5064463;28;20040;-63
2023/09/04 06:17:06;;;;;;;19.27;14.55;;;13.00;99.90;;;;;;5071591;28;20083;-59
2023/09/04 06:19:32;;;;;;;20.02;14.38;;;13.00;99.90;;;;;;5062455;28;20052;-59
2023/09/04 06:21:58;;;;;;;16.83;14.25;;;13.10;99.90;;;;;;5074952;28;20036;-59
2023/09/04 06:24:24;;;;;;;18.25;14.55;;;13.20;99.90;;;;;;5060717;28;20654;-58
2023/09/04 06:26:50;;;;;;;18.67;15.02;;;13.20;99.90;;;;;;5067592;28;20070;-59
2023/09/04 06:29:20;;;;;;;19.00;14.20;;;13.30;99.90;;;;;;5071457;28;20047;-59
2023/09/04 06:31:46;;;;;;;17.15;14.50;;;13.40;99.90;;;;;;5061980;28;20778;-58
2023/09/04 06:34:12;;;;;;;17.05;15.00;;;13.40;99.90;;;;;;5067453;28;20045;-59
2023/09/04 06:36:37;;;;;;;20.20;15.13;;;13.40;99.90;;;;;;5062626;28;20032;-58
2023/09/04 06:39:04;;;;;;;16.83;14.95;;;13.50;99.90;;;;;;5069064;28;20954;-58
2023/09/04 06:41:32;;;;;;;17.88;15.27;;;13.60;99.90;;;;;;5062519;28;20048;-58
2023/09/04 06:43:58;;;;;;;16.77;14.70;;;13.60;99.90;;;;;;5066755;28;20037;-59
2023/09/04 06:46:24;;;;;;;18.55;15.27;;;13.60;99.90;;;;;;5060514;28;20041;-60
2023/09/04 06:48:50;;;;;;;17.88;14.93;;;13.70;99.90;;;;;;5067697;28;20040;-60
2023/09/04 06:51:16;;;;;;;16.35;14.65;;;13.80;99.90;;;;;;5058929;28;20056;-59
2023/09/04 06:53:42;;;;;;;18.88;14.85;;;13.80;99.90;;;;;;5068440;28;20487;-59
2023/09/04 06:56:08;;;;;;;17.33;15.18;;;13.80;99.90;;;;;;5068019;28;20097;-58
2023/09/04 06:58:34;;;;;;;17.67;15.23;;;13.90;99.90;;;;;;5061354;28;20041;-58
2023/09/04 07:01:04;;;;;;;17.15;15.07;;;14.00;99.90;;;;;;5059296;28;20037;-59
2023/09/04 07:03:30;;;;;;;17.38;15.25;;;14.10;99.90;;;;;;5067880;28;20052;-60
2023/09/04 07:05:56;;;;;;;20.02;15.35;;;14.30;99.90;;;;;;5069897;28;20033;-59
2023/09/04 07:08:22;;;;;;;18.70;15.68;;;14.60;99.90;;;;;;5063149;28;20546;-58
2023/09/04 07:10:49;;;;;;;17.00;13.98;;;14.80;99.90;;;;;;5062035;28;20053;-60
2023/09/04 07:13:15;;;;;;;16.02;13.70;;;15.10;99.90;;;;;;5063884;28;20087;-59
2023/09/04 07:15:43;;;;;;;15.35;13.30;;;15.40;99.90;;;;;;5065615;28;20044;-60
2023/09/04 07:18:09;;;;;;;13.18;11.82;;;15.60;99.90;;;;;;5060806;28;20080;-59
2023/09/04 07:20:34;;;;;;;15.05;12.20;;;15.90;99.90;;;;;;5065786;28;20037;-59
2023/09/04 07:23:00;;;;;;;13.25;11.93;;;16.10;99.90;;;;;;5072915;28;20097;-59
2023/09/04 07:25:26;;;;;;;15.77;11.07;;;16.30;99.90;;;;;;5060236;28;20064;-60
2023/09/04 07:27:51;;;;;;;14.70;12.23;;;16.50;99.90;;;;;;5060660;28;20049;-60
2023/09/04 07:30:17;;;;;;;13.07;11.13;;;16.70;99.90;;;;;;5065456;28;20045;-59
2023/09/04 07:32:43;;;;;;;12.30;10.93;;;16.90;99.90;;;;;;5060833;28;20045;-60
2023/09/04 07:35:09;;;;;;;12.63;9.95;;;17.00;99.90;;;;;;5065052;28;20040;-59
2023/09/04 07:37:35;;;;;;;11.65;9.85;;;17.20;99.90;;;;;;5068719;28;20033;-59
2023/09/04 07:40:03;;;;;;;12.27;9.70;;;17.40;99.90;;;;;;5066943;28;20036;-58
2023/09/04 07:42:29;;;;;;;12.95;9.50;;;17.70;99.90;;;;;;5063983;28;20581;-59
2023/09/04 07:44:55;;;;;;;15.65;10.35;;;17.90;99.90;;;;;;5069917;28;20040;-60
2023/09/04 07:47:20;;;;;;;14.50;10.15;;;18.00;99.90;;;;;;5068802;28;20835;-59
2023/09/04 07:49:46;;;;;;;11.80;9.50;;;18.20;99.90;;;;;;5063567;28;20432;-60
2023/09/04 07:52:12;;;;;;;9.63;8.63;;;18.20;99.90;;;;;;5076180;28;20040;-59
2023/09/04 07:54:38;;;;;;;9.88;7.25;;;18.20;99.90;;;;;;5065555;28;20037;-59
2023/09/04 07:57:05;;;;;;;10.23;8.50;;;18.20;99.90;;;;;;5059374;28;20128;-59
2023/09/04 07:59:31;;;;;;;9.48;7.50;;;18.10;99.90;;;;;;5057257;28;20045;-59
2023/09/04 08:01:57;;;;;;;11.27;8.10;;;18.10;99.90;;;;;;5067602;28;20040;-59
2023/09/04 08:04:22;;;;;;;10.05;8.60;;;18.00;99.90;;;;;;5068943;28;20048;-59
2023/09/04 08:06:48;;;;;;;8.68;7.80;;;17.90;99.90;;;;;;5064795;28;20559;-58
2023/09/04 08:09:14;;;;;;;11.48;7.88;;;17.70;99.90;;;;;;5057946;28;20558;-58
2023/09/04 08:11:40;;;;;;;8.93;8.02;;;17.70;99.90;;;;;;5064080;28;20097;-58
2023/09/04 08:14:06;;;;;;;9.23;7.38;;;17.70;99.90;;;;;;5060178;28;20069;-59
2023/09/04 08:16:31;;;;;;;9.38;7.72;;;17.60;99.90;;;;;;5057861;28;20108;-60
2023/09/04 08:18:57;;;;;;;9.93;7.63;;;17.70;99.90;;;;;;5059187;28;20102;-59
2023/09/04 08:21:23;;;;;;;7.93;6.82;;;17.70;99.90;;;;;;5062554;28;20106;-59
2023/09/04 08:23:49;;;;;;;9.25;6.53;;;17.80;99.90;;;;;;5060836;28;20052;-60
2023/09/04 08:26:15;;;;;;;7.38;6.60;;;17.80;99.90;;;;;;5060555;28;20068;-59
2023/09/04 08:28:41;;;;;;;17.40;7.70;;;17.80;99.90;;;;;;5058166;28;20072;-58
2023/09/04 08:31:08;;;;;;;10.40;7.18;;;17.90;99.90;;;;;;5059696;28;20041;-59
2023/09/04 08:33:34;;;;;;;7.10;6.50;;;17.90;99.90;;;;;;5057601;28;20120;-59
2023/09/04 08:36:00;;;;;;;7.93;6.95;;;17.90;99.90;;;;;;5064004;28;20045;-59
2023/09/04 08:38:26;;;;;;;8.45;6.78;;;18.00;99.90;;;;;;5057918;28;20425;-58
2023/09/04 08:40:56;;;;;;;9.75;7.18;;;18.10;99.90;;;;;;5063260;28;20053;-59
2023/09/04 08:43:23;;;;;;;7.75;6.95;;;18.20;99.90;;;;;;5060024;28;20060;-59
2023/09/04 08:45:50;;;;;;;7.70;6.90;;;18.30;99.90;;;;;;5060808;28;20098;-59
2023/09/04 08:48:21;;;;;;;9.40;6.90;;;18.30;99.90;;;;;;5072142;28;20052;-59
2023/09/04 08:50:49;;;;;;;11.00;6.93;;;18.40;99.90;;;;;;5062829;28;20032;-59
2023/09/04 08:53:15;;;;;;;6.63;5.97;;;18.40;99.90;;;;;;5064303;28;20111;-58
2023/09/04 08:55:41;;;;;;;8.60;6.47;;;18.50;99.90;;;;;;5061796;28;20045;-58
2023/09/04 08:58:08;;;;;;;9.88;6.22;;;18.50;99.90;;;;;;5070528;28;20036;-59
2023/09/04 09:00:34;;;;;;;9.48;6.35;;;18.50;99.90;;;;;;5065856;28;20184;-58
2023/09/04 09:03:00;;;;;;;8.10;5.50;;;18.50;99.90;;;;;;5059176;28;20073;-60
2023/09/04 09:05:29;;;;;;;6.97;5.53;;;18.50;99.90;;;;;;5063130;28;20084;-59
2023/09/04 09:07:55;;;;;;;7.43;6.20;;;18.50;99.90;;;;;;5070734;28;20546;-58
2023/09/04 09:10:22;;;;;;;10.40;5.63;;;18.50;99.90;;;;;;5070021;28;20398;-59
2023/09/04 09:12:48;;;;;;;6.15;5.38;;;18.50;99.90;;;;;;5065387;28;20049;-59
2023/09/04 09:15:15;;;;;;;9.65;5.75;;;18.50;99.90;;;;;;5068520;28;20132;-60
2023/09/04 09:17:55;;;;;;;8.77;5.95;;;18.50;99.90;;;;;;5063286;28;20049;-60
2023/09/04 09:20:34;;;;;;;7.38;5.43;;;18.60;99.90;;;;;;5073016;28;20726;-59
2023/09/04 09:23:00;;;;;;;5.25;4.75;;;18.60;99.90;;;;;;5060219;28;20090;-60
2023/09/04 09:25:29;;;;;;;7.30;5.03;;;18.60;99.90;;;;;;5062072;28;20033;-59
2023/09/04 09:28:05;;;;;;;5.72;5.10;;;18.70;99.90;;;;;;5071157;28;20139;-59
2023/09/04 09:30:37;;;;;;;6.75;5.40;;;18.80;99.90;;;;;;5063099;28;20090;-59
2023/09/04 09:33:08;;;;;;;11.15;5.60;;;18.90;99.90;;;;;;5050657;28;20032;-60
2023/09/04 09:35:34;;;;;;;5.97;5.25;;;18.90;99.90;;;;;;5073263;28;20049;-59
2023/09/04 09:38:01;;;;;;;6.30;4.60;;;19.00;99.90;;;;;;5071630;28;20047;-59
2023/09/04 09:40:27;;;;;;;8.68;5.10;;;19.10;99.90;;;;;;5050224;28;20104;-60
2023/09/04 09:42:53;;;;;;;6.80;4.97;;;19.10;99.90;;;;;;5065203;28;20045;-60
2023/09/04 09:45:19;;;;;;;6.68;4.68;;;19.30;99.90;;;;;;5066040;28;20055;-60
2023/09/04 09:47:45;;;;;;;9.65;4.55;;;19.30;99.90;;;;;;5066588;28;20029;-60
2023/09/04 09:50:13;;;;;;;6.10;4.40;;;19.40;99.90;;;;;;5061835;28;20097;-59
2023/09/04 09:52:56;;;;;;;8.70;4.20;;;19.40;99.90;;;;;;5065197;28;20526;-60
2023/09/04 09:55:26;;;;;;;7.97;4.00;;;19.50;99.90;;;;;;5064587;28;20044;-60
2023/09/04 09:57:54;;;;;;;7.88;4.07;;;19.50;99.90;;;;;;5066298;28;20501;-59
2023/09/04 10:00:19;;;;;;;7.15;4.00;;;19.50;99.90;;;;;;5063751;28;20033;-59
2023/09/04 10:02:46;;;;;;;5.72;3.67;;;19.60;99.90;;;;;;5068655;28;20048;-59
2023/09/04 10:05:11;;;;;;;6.47;4.32;;;19.60;99.90;;;;;;5065130;28;20048;-56
2023/09/04 10:07:38;;;;;;;9.93;4.00;;;19.60;99.90;;;;;;5070653;28;20033;-58
2023/09/04 10:10:06;;;;;;;5.82;3.58;;;19.60;99.90;;;;;;5074904;28;20048;-58
2023/09/04 10:12:52;;;;;;;5.03;3.80;;;19.70;99.90;;;;;;5062253;28;20041;-59
2023/09/04 10:15:27;;;;;;;8.30;4.15;;;19.70;99.90;;;;;;5062330;28;20041;-60
2023/09/04 10:18:02;;;;;;;4.85;3.20;;;19.80;99.90;;;;;;5076545;28;20509;-60
2023/09/04 10:20:28;;;;;;;6.40;4.05;;;19.80;99.90;;;;;;5047148;28;20444;-60
2023/09/04 10:23:14;;;;;;;12.07;6.22;;;19.80;99.90;;;;;;5074536;28;20037;-60
2023/09/04 10:25:40;;;;;;;;;;;20.00;99.90;;;;;;5071322;28;20052;-61
2023/09/04 10:28:26;;;;;;;8.80;4.90;;;20.00;99.90;;;;;;5069010;28;19920;-59
2023/09/04 10:30:53;;;;;;;9.40;4.30;;;20.10;99.90;;;;;;5061032;28;20585;-59
2023/09/04 10:33:20;;;;;;;5.35;3.55;;;20.10;99.90;;;;;;5063787;28;20086;-60
2023/09/04 10:35:46;;;;;;;9.77;3.97;;;20.10;99.90;;;;;;5062762;28;20513;-60
2023/09/04 10:38:13;;;;;;;6.22;3.92;;;20.20;99.90;;;;;;5063963;28;20512;-59
2023/09/04 10:40:40;;;;;;;5.72;3.83;;;20.20;99.90;;;;;;5071462;28;20091;-60
2023/09/04 10:43:09;;;;;;;5.88;3.97;;;20.20;99.90;;;;;;5062049;28;20037;-59
2023/09/04 10:45:35;;;;;;;7.18;3.85;;;20.20;99.90;;;;;;5071664;28;20056;-59
2023/09/04 10:48:01;;;;;;;8.00;3.95;;;20.30;99.90;;;;;;5073840;28;20051;-58
2023/09/04 10:50:37;;;;;;;7.22;3.58;;;20.30;99.90;;;;;;5069310;28;20497;-59
2023/09/04 10:53:07;;;;;;;;;;;20.40;99.90;;;;;;5064785;28;20378;-59
2023/09/04 10:55:37;;;;;;;7.13;4.47;;;20.30;99.90;;;;;;5063259;28;20338;-60
2023/09/04 10:58:05;;;;;;;5.75;4.00;;;20.40;99.90;;;;;;5064603;28;20052;-60
2023/09/04 11:00:34;;;;;;;6.97;3.83;;;20.40;99.90;;;;;;5068150;28;20036;-59
2023/09/04 11:03:19;;;;;;;6.53;4.03;;;20.40;99.90;;;;;;5067628;28;20040;-60
2023/09/04 11:06:05;;;;;;;5.25;4.00;;;20.40;99.90;;;;;;5069126;28;20052;-58
2023/09/04 11:08:48;;;;;;;5.03;3.35;;;20.50;99.90;;;;;;5060183;28;20177;-59
2023/09/04 11:11:14;;;;;;;5.45;4.07;;;20.50;99.90;;;;;;5060757;28;20616;-59
2023/09/04 11:13:40;;;;;;;8.98;4.05;;;20.60;99.90;;;;;;5070315;28;20064;-59
2023/09/04 11:16:07;;;;;;;7.30;3.88;;;20.70;99.90;;;;;;5061858;28;20040;-60
2023/09/04 11:18:37;;;;;;;9.23;3.80;;;20.70;99.90;;;;;;5060178;28;20043;-60
2023/09/04 11:21:04;;;;;;;8.73;3.90;;;20.80;99.90;;;;;;5061523;28;20102;-60
2023/09/04 11:23:31;;;;;;;7.72;3.75;;;20.90;99.90;;;;;;5061303;28;20055;-59
2023/09/04 11:25:57;;;;;;;7.25;4.30;;;21.00;99.90;;;;;;5063633;28;20045;-58
2023/09/04 11:28:26;;;;;;;11.98;4.55;;;21.10;99.90;;;;;;5060073;28;20060;-58
2023/09/04 11:30:53;;;;;;;7.50;4.18;;;21.20;99.90;;;;;;5067186;28;20119;-59
2023/09/04 11:33:22;;;;;;;6.20;4.20;;;21.20;99.90;;;;;;5067938;28;20059;-58
2023/09/04 11:36:06;;;;;;;5.38;3.67;;;21.30;99.90;;;;;;5062379;28;20116;-59
2023/09/04 11:38:36;;;;;;;5.55;3.38;;;21.40;99.90;;;;;;5063928;28;20036;-59
2023/09/04 11:41:22;;;;;;;5.18;3.47;;;21.40;99.90;;;;;;5066838;28;20072;-58
2023/09/04 11:43:48;;;;;;;3.92;3.45;;;21.50;99.90;;;;;;5072170;28;20045;-59
2023/09/04 11:46:14;;;;;;;7.05;3.47;;;21.50;99.90;;;;;;5060376;28;20057;-60
2023/09/04 11:48:40;;;;;;;5.72;3.53;;;21.60;99.90;;;;;;5065216;28;20033;-59
2023/09/04 11:51:07;;;;;;;37.72;4.80;;;21.60;99.90;;;;;;5062663;28;20033;-59
2023/09/04 11:53:33;;;;;;;70.80;63.50;;;21.70;99.90;;;;;;5065254;28;20045;-58
2023/09/04 11:55:59;;;;;;;5.78;4.28;;;21.70;99.90;;;;;;5053005;28;20100;-58
2023/09/04 11:58:25;;;;;;;4.18;3.45;;;21.70;99.90;;;;;;5067992;28;20049;-59
2023/09/04 12:00:51;;;;;;;5.72;3.20;;;21.80;99.90;;;;;;5068114;28;20090;-59
2023/09/04 12:03:17;;;;;;;6.10;3.25;;;21.80;99.90;;;;;;5066136;28;20055;-59
2023/09/04 12:05:44;;;;;;;4.15;2.92;;;21.80;99.90;;;;;;5064663;28;20041;-59
2023/09/04 12:08:10;;;;;;;4.35;2.67;;;21.90;99.90;;;;;;5071778;28;20559;-59
2023/09/04 12:10:39;;;;;;;5.05;2.88;;;21.90;99.90;;;;;;5061325;28;20041;-59
2023/09/04 12:13:05;;;;;;;4.88;2.90;;;22.00;99.90;;;;;;5061880;28;20091;-59
2023/09/04 12:15:35;;;;;;;4.50;2.70;;;22.00;99.90;;;;;;5058345;28;20092;-58
2023/09/04 12:18:05;;;;;;;4.72;2.70;;;22.10;99.90;;;;;;5065965;28;20044;-58
2023/09/04 12:20:41;;;;;;;6.97;3.08;;;22.20;99.90;;;;;;5057743;28;20144;-59
2023/09/04 12:23:08;;;;;;;3.97;2.70;;;22.20;99.90;;;;;;5066205;28;20047;-59
2023/09/04 12:25:42;;;;;;;5.38;2.67;;;22.30;99.90;;;;;;5067278;28;20493;-59
2023/09/04 12:28:14;;;;;;;6.67;2.80;;;22.30;99.90;;;;;;5061715;28;20063;-58
2023/09/04 12:30:45;;;;;;;4.85;2.90;;;22.40;99.90;;;;;;5062327;28;20099;-58
2023/09/04 12:33:18;;;;;;;5.70;2.97;;;22.40;99.90;;;;;;5057513;28;20045;-59
2023/09/04 12:35:44;;;;;;;5.20;2.83;;;22.40;99.90;;;;;;5070029;28;20090;-59
2023/09/04 12:38:13;;;;;;;4.72;2.70;;;22.50;99.90;;;;;;5061211;28;20041;-59
2023/09/04 12:40:39;;;;;;;3.53;2.72;;;22.50;99.90;;;;;;5065653;28;20032;-59